Aviation Digital Data Service (ADDS)

Output produced by METARs form (1111 UTC 19 February 2019)
found at http://www.aviationweather.gov/metar/data/
 
METAR text: KDAB 191053Z 02008KT 10SM BKN018 BKN029 18/17 A3019 RMK AO2 SLP223 T01780167
Conditions at: KDAB (DAYTONA BEACH , FL, US) observed 1053 UTC 19 February 2019
Temperature: 17.8°C (64°F)
Dewpoint: 16.7°C (62°F) [RH = 93%]
Pressure (altimeter): 30.19 inches Hg (1022.4 mb)
[Sea-level pressure: 1022.3 mb]
Winds: from the NNE (20 degrees) at 9 MPH (8 knots; 4.1 m/s)
Visibility: 10 or more miles (16+ km)
Ceiling: 1800 feet AGL
Clouds: broken clouds at 1800 feet AGL
broken clouds at 2900 feet AGL
Weather: no significant weather observed at this time

METAR text: KDAB 190953Z 02012KT 10SM OVC015 17/16 A3019 RMK AO2 SLP224 T01720156
Conditions at: KDAB (DAYTONA BEACH , FL, US) observed 0953 UTC 19 February 2019
Temperature: 17.2°C (63°F)
Dewpoint: 15.6°C (60°F) [RH = 90%]
Pressure (altimeter): 30.19 inches Hg (1022.4 mb)
[Sea-level pressure: 1022.4 mb]
Winds: from the NNE (20 degrees) at 14 MPH (12 knots; 6.2 m/s)
Visibility: 10 or more miles (16+ km)
Ceiling: 1500 feet AGL
Clouds: overcast cloud deck at 1500 feet AGL
Weather: no significant weather observed at this time

METAR text: KDAB 190939Z 02012KT 10SM OVC015 17/15 A3020 RMK AO2 T01720150
Conditions at: KDAB (DAYTONA BEACH , FL, US) observed 0939 UTC 19 February 2019
Temperature: 17.2°C (63°F)
Dewpoint: 15.0°C (59°F) [RH = 87%]
Pressure (altimeter): 30.20 inches Hg (1022.8 mb)
Winds: from the NNE (20 degrees) at 14 MPH (12 knots; 6.2 m/s)
Visibility: 10 or more miles (16+ km)
Ceiling: 1500 feet AGL
Clouds: overcast cloud deck at 1500 feet AGL
Weather: no significant weather observed at this time

METAR text: KDAB 190912Z 01011KT 10SM BKN014 OVC021 17/15 A3020 RMK AO2 T01720150
Conditions at: KDAB (DAYTONA BEACH , FL, US) observed 0912 UTC 19 February 2019
Temperature: 17.2°C (63°F)
Dewpoint: 15.0°C (59°F) [RH = 87%]
Pressure (altimeter): 30.20 inches Hg (1022.8 mb)
Winds: from the N (10 degrees) at 13 MPH (11 knots; 5.7 m/s)
Visibility: 10 or more miles (16+ km)
Ceiling: 1400 feet AGL
Clouds: broken clouds at 1400 feet AGL
overcast cloud deck at 2100 feet AGL
Weather: no significant weather observed at this time

METAR text: KDAB 190853Z 01011KT 10SM BKN015 OVC021 17/14 A3020 RMK AO2 RAB06E19 SLP226 P0000 60000 T01720144 58007
Conditions at: KDAB (DAYTONA BEACH , FL, US) observed 0853 UTC 19 February 2019
Temperature: 17.2°C (63°F)
Dewpoint: 14.4°C (58°F) [RH = 84%]
Pressure (altimeter): 30.20 inches Hg (1022.8 mb)
[Sea-level pressure: 1022.6 mb]
Winds: from the N (10 degrees) at 13 MPH (11 knots; 5.7 m/s)
Visibility: 10 or more miles (16+ km)
Ceiling: 1500 feet AGL
Clouds: broken clouds at 1500 feet AGL
overcast cloud deck at 2100 feet AGL
Weather: no significant weather observed at this time

METAR text: KDAB 190826Z 01012KT 10SM OVC015 17/14 A3020 RMK AO2 RAB06E19 P0000 T01670144
Conditions at: KDAB (DAYTONA BEACH , FL, US) observed 0826 UTC 19 February 2019
Temperature: 16.7°C (62°F)
Dewpoint: 14.4°C (58°F) [RH = 86%]
Pressure (altimeter): 30.20 inches Hg (1022.8 mb)
Winds: from the N (10 degrees) at 14 MPH (12 knots; 6.2 m/s)
Visibility: 10 or more miles (16+ km)
Ceiling: 1500 feet AGL
Clouds: overcast cloud deck at 1500 feet AGL
Weather: no significant weather observed at this time

METAR text: KDAB 190814Z 01011KT 10SM -RA OVC014 17/14 A3020 RMK AO2 RAB06 P0000 T01670139
Conditions at: KDAB (DAYTONA BEACH , FL, US) observed 0814 UTC 19 February 2019
Temperature: 16.7°C (62°F)
Dewpoint: 13.9°C (57°F) [RH = 84%]
Pressure (altimeter): 30.20 inches Hg (1022.8 mb)
Winds: from the N (10 degrees) at 13 MPH (11 knots; 5.7 m/s)
Visibility: 10 or more miles (16+ km)
Ceiling: 1400 feet AGL
Clouds: overcast cloud deck at 1400 feet AGL
Weather: -RA  (light rain)

METAR text: KDAB 190753Z 01012G18KT 10SM SCT011 OVC017 17/13 A3021 RMK AO2 SLP229 T01720133
Conditions at: KDAB (DAYTONA BEACH , FL, US) observed 0753 UTC 19 February 2019
Temperature: 17.2°C (63°F)
Dewpoint: 13.3°C (56°F) [RH = 78%]
Pressure (altimeter): 30.21 inches Hg (1023.1 mb)
[Sea-level pressure: 1022.9 mb]
Winds: from the N (10 degrees) at 14 MPH (12 knots; 6.2 m/s)
gusting to 21 MPH (18 knots; 9.3 m/s)
Visibility: 10 or more miles (16+ km)
Ceiling: 1700 feet AGL
Clouds: scattered clouds at 1100 feet AGL
overcast cloud deck at 1700 feet AGL
Weather: no significant weather observed at this time

METAR text: KDAB 190653Z 01011KT 10SM BKN012 OVC018 17/13 A3022 RMK AO2 SLP232 OVC V BKN T01720128
Conditions at: KDAB (DAYTONA BEACH , FL, US) observed 0653 UTC 19 February 2019
Temperature: 17.2°C (63°F)
Dewpoint: 12.8°C (55°F) [RH = 75%]
Pressure (altimeter): 30.22 inches Hg (1023.5 mb)
[Sea-level pressure: 1023.2 mb]
Winds: from the N (10 degrees) at 13 MPH (11 knots; 5.7 m/s)
Visibility: 10 or more miles (16+ km)
Ceiling: 1200 feet AGL
Clouds: broken clouds at 1200 feet AGL
overcast cloud deck at 1800 feet AGL
Weather: no significant weather observed at this time

METAR text: KDAB 190553Z 02007KT 10SM OVC016 18/14 A3022 RMK AO2 SLP233 OVC V BKN T01830144 10194 20183 50002
Conditions at: KDAB (DAYTONA BEACH , FL, US) observed 0553 UTC 19 February 2019
Temperature: 18.3°C (65°F)
Dewpoint: 14.4°C (58°F) [RH = 78%]
Pressure (altimeter): 30.22 inches Hg (1023.5 mb)
[Sea-level pressure: 1023.3 mb]
Winds: from the NNE (20 degrees) at 8 MPH (7 knots; 3.6 m/s)
Visibility: 10 or more miles (16+ km)
Ceiling: 1600 feet AGL
Clouds: overcast cloud deck at 1600 feet AGL
Weather: no significant weather observed at this time

METAR text: KDAB 190530Z 36007KT 10SM OVC015 18/15 A3022 RMK AO2 T01830150
Conditions at: KDAB (DAYTONA BEACH , FL, US) observed 0530 UTC 19 February 2019
Temperature: 18.3°C (65°F)
Dewpoint: 15.0°C (59°F) [RH = 81%]
Pressure (altimeter): 30.22 inches Hg (1023.5 mb)
Winds: from the N (360 degrees) at 8 MPH (7 knots; 3.6 m/s)
Visibility: 10 or more miles (16+ km)
Ceiling: 1500 feet AGL
Clouds: overcast cloud deck at 1500 feet AGL
Weather: no significant weather observed at this time

METAR text: KDAB 190508Z 01009KT 10SM OVC014 19/15 A3023 RMK AO2 T01890150
Conditions at: KDAB (DAYTONA BEACH , FL, US) observed 0508 UTC 19 February 2019
Temperature: 18.9°C (66°F)
Dewpoint: 15.0°C (59°F) [RH = 78%]
Pressure (altimeter): 30.23 inches Hg (1023.8 mb)
Winds: from the N (10 degrees) at 10 MPH (9 knots; 4.6 m/s)
Visibility: 10 or more miles (16+ km)
Ceiling: 1400 feet AGL
Clouds: overcast cloud deck at 1400 feet AGL
Weather: no significant weather observed at this time

METAR text: KDAB 190453Z 01008KT 10SM OVC015 19/15 A3022 RMK AO2 SLP234 T01890150 403000183
Conditions at: KDAB (DAYTONA BEACH , FL, US) observed 0453 UTC 19 February 2019
Temperature: 18.9°C (66°F)
Dewpoint: 15.0°C (59°F) [RH = 78%]
Pressure (altimeter): 30.22 inches Hg (1023.5 mb)
[Sea-level pressure: 1023.4 mb]
Winds: from the N (10 degrees) at 9 MPH (8 knots; 4.1 m/s)
Visibility: 10 or more miles (16+ km)
Ceiling: 1500 feet AGL
Clouds: overcast cloud deck at 1500 feet AGL
Weather: no significant weather observed at this time

METAR text: KDAB 190353Z 01010KT 10SM OVC017 18/16 A3022 RMK AO2 SLP233 T01830156
Conditions at: KDAB (DAYTONA BEACH , FL, US) observed 0353 UTC 19 February 2019
Temperature: 18.3°C (65°F)
Dewpoint: 15.6°C (60°F) [RH = 84%]
Pressure (altimeter): 30.22 inches Hg (1023.5 mb)
[Sea-level pressure: 1023.3 mb]
Winds: from the N (10 degrees) at 12 MPH (10 knots; 5.1 m/s)
Visibility: 10 or more miles (16+ km)
Ceiling: 1700 feet AGL
Clouds: overcast cloud deck at 1700 feet AGL
Weather: no significant weather observed at this time

METAR text: KDAB 190253Z 36011KT 10SM OVC020 19/16 A3022 RMK AO2 SLP231 T01890161 51024
Conditions at: KDAB (DAYTONA BEACH , FL, US) observed 0253 UTC 19 February 2019
Temperature: 18.9°C (66°F)
Dewpoint: 16.1°C (61°F) [RH = 84%]
Pressure (altimeter): 30.22 inches Hg (1023.5 mb)
[Sea-level pressure: 1023.1 mb]
Winds: from the N (360 degrees) at 13 MPH (11 knots; 5.7 m/s)
Visibility: 10 or more miles (16+ km)
Ceiling: 2000 feet AGL
Clouds: overcast cloud deck at 2000 feet AGL
Weather: no significant weather observed at this time

METAR text: KDAB 190153Z 01014KT 10SM OVC021 19/17 A3020 RMK AO2 SLP226 T01940172
Conditions at: KDAB (DAYTONA BEACH , FL, US) observed 0153 UTC 19 February 2019
Temperature: 19.4°C (67°F)
Dewpoint: 17.2°C (63°F) [RH = 87%]
Pressure (altimeter): 30.20 inches Hg (1022.8 mb)
[Sea-level pressure: 1022.6 mb]
Winds: from the N (10 degrees) at 16 MPH (14 knots; 7.2 m/s)
Visibility: 10 or more miles (16+ km)
Ceiling: 2100 feet AGL
Clouds: overcast cloud deck at 2100 feet AGL
Weather: no significant weather observed at this time

METAR text: KDAB 190127Z 02012KT 10SM BKN022 BKN090 19/17 A3019 RMK AO2 T01890172
Conditions at: KDAB (DAYTONA BEACH , FL, US) observed 0127 UTC 19 February 2019
Temperature: 18.9°C (66°F)
Dewpoint: 17.2°C (63°F) [RH = 90%]
Pressure (altimeter): 30.19 inches Hg (1022.4 mb)
Winds: from the NNE (20 degrees) at 14 MPH (12 knots; 6.2 m/s)
Visibility: 10 or more miles (16+ km)
Ceiling: 2200 feet AGL
Clouds: broken clouds at 2200 feet AGL
broken clouds at 9000 feet AGL
Weather: no significant weather observed at this time

METAR text: KDAB 190053Z 03011KT 10SM SCT065 19/17 A3017 RMK AO2 SLP216 T01940172
Conditions at: KDAB (DAYTONA BEACH , FL, US) observed 0053 UTC 19 February 2019
Temperature: 19.4°C (67°F)
Dewpoint: 17.2°C (63°F) [RH = 87%]
Pressure (altimeter): 30.17 inches Hg (1021.8 mb)
[Sea-level pressure: 1021.6 mb]
Winds: from the NNE (30 degrees) at 13 MPH (11 knots; 5.7 m/s)
Visibility: 10 or more miles (16+ km)
Ceiling: at least 12,000 feet AGL
Clouds: scattered clouds at 6500 feet AGL
Weather: no significant weather observed at this time

METAR text: KDAB 182353Z 02010KT 10SM SCT046 SCT055 BKN090 19/17 A3014 RMK AO2 WSHFT 2258 SLP207 T01940167 10300 20189 53029
Conditions at: KDAB (DAYTONA BEACH , FL, US) observed 2353 UTC 18 February 2019
Temperature: 19.4°C (67°F)
Dewpoint: 16.7°C (62°F) [RH = 84%]
Pressure (altimeter): 30.14 inches Hg (1020.7 mb)
[Sea-level pressure: 1020.7 mb]
Winds: from the NNE (20 degrees) at 12 MPH (10 knots; 5.1 m/s)
Visibility: 10 or more miles (16+ km)
Ceiling: 9000 feet AGL
Clouds: scattered clouds at 4600 feet AGL
scattered clouds at 5500 feet AGL
broken clouds at 9000 feet AGL
Weather: no significant weather observed at this time

METAR text: KDAB 182314Z 35017KT 10SM SCT048 BKN060 BKN080 21/17 A3012 RMK AO2 WSHFT 2258 T02060172
Conditions at: KDAB (DAYTONA BEACH , FL, US) observed 2314 UTC 18 February 2019
Temperature: 20.6°C (69°F)
Dewpoint: 17.2°C (63°F) [RH = 81%]
Pressure (altimeter): 30.12 inches Hg (1020.1 mb)
Winds: from the N (350 degrees) at 20 MPH (17 knots; 8.7 m/s)
Visibility: 10 or more miles (16+ km)
Ceiling: 6000 feet AGL
Clouds: scattered clouds at 4800 feet AGL
broken clouds at 6000 feet AGL
broken clouds at 8000 feet AGL
Weather: no significant weather observed at this time

METAR text: KDAB 182253Z 22005KT 10SM SCT050 BKN065 BKN075 28/21 A3009 RMK AO2 SLP189 T02780206
Conditions at: KDAB (DAYTONA BEACH , FL, US) observed 2253 UTC 18 February 2019
Temperature: 27.8°C (82°F)
Dewpoint: 20.6°C (69°F) [RH = 65%]
Pressure (altimeter): 30.09 inches Hg (1019.0 mb)
[Sea-level pressure: 1018.9 mb]
Winds: from the SW (220 degrees) at 6 MPH (5 knots; 2.6 m/s)
Visibility: 10 or more miles (16+ km)
Ceiling: 6500 feet AGL
Clouds: scattered clouds at 5000 feet AGL
broken clouds at 6500 feet AGL
broken clouds at 7500 feet AGL
Weather: no significant weather observed at this time

METAR text: KDAB 182153Z 19006KT 10SM FEW050 BKN065 29/21 A3007 RMK AO2 SLP183 T02940211
Conditions at: KDAB (DAYTONA BEACH , FL, US) observed 2153 UTC 18 February 2019
Temperature: 29.4°C (85°F)
Dewpoint: 21.1°C (70°F) [RH = 61%]
Pressure (altimeter): 30.07 inches Hg (1018.4 mb)
[Sea-level pressure: 1018.3 mb]
Winds: from the S (190 degrees) at 7 MPH (6 knots; 3.1 m/s)
Visibility: 10 or more miles (16+ km)
Ceiling: 6500 feet AGL
Clouds: few clouds at 5000 feet AGL
broken clouds at 6500 feet AGL
Weather: no significant weather observed at this time

METAR text: KDAB 182053Z 20008KT 10SM FEW046 SCT085 30/21 A3006 RMK AO2 SLP178 T03000211 56015
Conditions at: KDAB (DAYTONA BEACH , FL, US) observed 2053 UTC 18 February 2019
Temperature: 30.0°C (86°F)
Dewpoint: 21.1°C (70°F) [RH = 59%]
Pressure (altimeter): 30.06 inches Hg (1018.0 mb)
[Sea-level pressure: 1017.8 mb]
Winds: from the SSW (200 degrees) at 9 MPH (8 knots; 4.1 m/s)
Visibility: 10 or more miles (16+ km)
Ceiling: at least 12,000 feet AGL
Clouds: few clouds at 4600 feet AGL
scattered clouds at 8500 feet AGL
Weather: no significant weather observed at this time

METAR text: KDAB 181953Z 21007KT 10SM FEW039 FEW080 29/22 A3006 RMK AO2 SLP180 T02940217
Conditions at: KDAB (DAYTONA BEACH , FL, US) observed 1953 UTC 18 February 2019
Temperature: 29.4°C (85°F)
Dewpoint: 21.7°C (71°F) [RH = 63%]
Pressure (altimeter): 30.06 inches Hg (1018.0 mb)
[Sea-level pressure: 1018.0 mb]
Winds: from the SSW (210 degrees) at 8 MPH (7 knots; 3.6 m/s)
Visibility: 10 or more miles (16+ km)
Ceiling: at least 12,000 feet AGL
Clouds: few clouds at 3900 feet AGL
few clouds at 8000 feet AGL
Weather: no significant weather observed at this time

METAR text: KDAB 181853Z 20007KT 170V240 10SM FEW035 FEW045 SCT080 29/22 A3008 RMK AO2 SLP186 T02890222
Conditions at: KDAB (DAYTONA BEACH , FL, US) observed 1853 UTC 18 February 2019
Temperature: 28.9°C (84°F)
Dewpoint: 22.2°C (72°F) [RH = 67%]
Pressure (altimeter): 30.08 inches Hg (1018.7 mb)
[Sea-level pressure: 1018.6 mb]
Winds: from the SSW (200 degrees) at 8 MPH (7 knots; 3.6 m/s)
Visibility: 10 or more miles (16+ km)
Ceiling: at least 12,000 feet AGL
Clouds: few clouds at 3500 feet AGL
few clouds at 4500 feet AGL
scattered clouds at 8000 feet AGL
Weather: no significant weather observed at this time

METAR text: KDAB 181753Z 21008KT 10SM SCT025 BKN080 28/23 A3010 RMK AO2 SLP193 T02780228 10278 20189 58004
Conditions at: KDAB (DAYTONA BEACH , FL, US) observed 1753 UTC 18 February 2019
Temperature: 27.8°C (82°F)
Dewpoint: 22.8°C (73°F) [RH = 74%]
Pressure (altimeter): 30.10 inches Hg (1019.4 mb)
[Sea-level pressure: 1019.3 mb]
Winds: from the SSW (210 degrees) at 9 MPH (8 knots; 4.1 m/s)
Visibility: 10 or more miles (16+ km)
Ceiling: 8000 feet AGL
Clouds: scattered clouds at 2500 feet AGL
broken clouds at 8000 feet AGL
Weather: no significant weather observed at this time

METAR text: KDAB 181653Z 22009KT 10SM FEW022 BKN075 26/23 A3012 RMK AO2 SLP199 T02610228
Conditions at: KDAB (DAYTONA BEACH , FL, US) observed 1653 UTC 18 February 2019
Temperature: 26.1°C (79°F)
Dewpoint: 22.8°C (73°F) [RH = 82%]
Pressure (altimeter): 30.12 inches Hg (1020.1 mb)
[Sea-level pressure: 1019.9 mb]
Winds: from the SW (220 degrees) at 10 MPH (9 knots; 4.6 m/s)
Visibility: 10 or more miles (16+ km)
Ceiling: 7500 feet AGL
Clouds: few clouds at 2200 feet AGL
broken clouds at 7500 feet AGL
Weather: no significant weather observed at this time

METAR text: KDAB 181553Z 22007KT 10SM FEW027 OVC075 25/23 A3012 RMK AO2 SLP199 T02500228
Conditions at: KDAB (DAYTONA BEACH , FL, US) observed 1553 UTC 18 February 2019
Temperature: 25.0°C (77°F)
Dewpoint: 22.8°C (73°F) [RH = 88%]
Pressure (altimeter): 30.12 inches Hg (1020.1 mb)
[Sea-level pressure: 1019.9 mb]
Winds: from the SW (220 degrees) at 8 MPH (7 knots; 3.6 m/s)
Visibility: 10 or more miles (16+ km)
Ceiling: 7500 feet AGL
Clouds: few clouds at 2700 feet AGL
overcast cloud deck at 7500 feet AGL
Weather: no significant weather observed at this time

METAR text: KDAB 181453Z 20008KT 10SM FEW027 OVC075 23/22 A3011 RMK AO2 SLP196 T02330222 53019
Conditions at: KDAB (DAYTONA BEACH , FL, US) observed 1453 UTC 18 February 2019
Temperature: 23.3°C (74°F)
Dewpoint: 22.2°C (72°F) [RH = 94%]
Pressure (altimeter): 30.11 inches Hg (1019.7 mb)
[Sea-level pressure: 1019.6 mb]
Winds: from the SSW (200 degrees) at 9 MPH (8 knots; 4.1 m/s)
Visibility: 10 or more miles (16+ km)
Ceiling: 7500 feet AGL
Clouds: few clouds at 2700 feet AGL
overcast cloud deck at 7500 feet AGL
Weather: no significant weather observed at this time

METAR text: KDAB 181353Z 19006KT 10SM FEW050 BKN070 22/21 A3010 RMK AO2 SLP191 T02170206
Conditions at: KDAB (DAYTONA BEACH , FL, US) observed 1353 UTC 18 February 2019
Temperature: 21.7°C (71°F)
Dewpoint: 20.6°C (69°F) [RH = 93%]
Pressure (altimeter): 30.10 inches Hg (1019.4 mb)
[Sea-level pressure: 1019.1 mb]
Winds: from the S (190 degrees) at 7 MPH (6 knots; 3.1 m/s)
Visibility: 10 or more miles (16+ km)
Ceiling: 7000 feet AGL
Clouds: few clouds at 5000 feet AGL
broken clouds at 7000 feet AGL
Weather: no significant weather observed at this time

METAR text: KDAB 181253Z 19003KT 10SM SCT047 BKN070 20/19 A3007 RMK AO2 SLP183 T02000194
Conditions at: KDAB (DAYTONA BEACH , FL, US) observed 1253 UTC 18 February 2019
Temperature: 20.0°C (68°F)
Dewpoint: 19.4°C (67°F) [RH = 96%]
Pressure (altimeter): 30.07 inches Hg (1018.4 mb)
[Sea-level pressure: 1018.3 mb]
Winds: from the S (190 degrees) at 3 MPH (3 knots; 1.5 m/s)
Visibility: 10 or more miles (16+ km)
Ceiling: 7000 feet AGL
Clouds: scattered clouds at 4700 feet AGL
broken clouds at 7000 feet AGL
Weather: no significant weather observed at this time

METAR text: KDAB 181153Z COR 00000KT 10SM SCT047 BKN060 19/19 A3006 RMK AO2 SLP178 T01890189 10200 20189 53018
Conditions at: KDAB (DAYTONA BEACH , FL, US) observed 1153 UTC 18 February 2019
Temperature: 18.9°C (66°F)
Dewpoint: 18.9°C (66°F) [RH = 100%]
Pressure (altimeter): 30.06 inches Hg (1018.0 mb)
[Sea-level pressure: 1017.8 mb]
Winds: calm
Visibility: 10 or more miles (16+ km)
Ceiling: 6000 feet AGL
Clouds: scattered clouds at 4700 feet AGL
broken clouds at 6000 feet AGL
Weather: no significant weather observed at this time

METAR text: KDAB 181053Z 20003KT 10SM SCT045 SCT060 19/18 A3003 RMK AO2 SLP169 T01890183
Conditions at: KDAB (DAYTONA BEACH , FL, US) observed 1053 UTC 18 February 2019
Temperature: 18.9°C (66°F)
Dewpoint: 18.3°C (65°F) [RH = 96%]
Pressure (altimeter): 30.03 inches Hg (1017.0 mb)
[Sea-level pressure: 1016.9 mb]
Winds: from the SSW (200 degrees) at 3 MPH (3 knots; 1.5 m/s)
Visibility: 10 or more miles (16+ km)
Ceiling: at least 12,000 feet AGL
Clouds: scattered clouds at 4500 feet AGL
scattered clouds at 6000 feet AGL
Weather: no significant weather observed at this time

METAR text: KDAB 180953Z 21005KT 10SM BKN055 19/19 A3002 RMK AO2 SLP163 T01940189
Conditions at: KDAB (DAYTONA BEACH , FL, US) observed 0953 UTC 18 February 2019
Temperature: 19.4°C (67°F)
Dewpoint: 18.9°C (66°F) [RH = 97%]
Pressure (altimeter): 30.02 inches Hg (1016.7 mb)
[Sea-level pressure: 1016.3 mb]
Winds: from the SSW (210 degrees) at 6 MPH (5 knots; 2.6 m/s)
Visibility: 10 or more miles (16+ km)
Ceiling: 5500 feet AGL
Clouds: broken clouds at 5500 feet AGL
Weather: no significant weather observed at this time

METAR text: KDAB 180853Z 19005KT 10SM FEW055 19/18 A3001 RMK AO2 SLP160 T01940183 55001
Conditions at: KDAB (DAYTONA BEACH , FL, US) observed 0853 UTC 18 February 2019
Temperature: 19.4°C (67°F)
Dewpoint: 18.3°C (65°F) [RH = 93%]
Pressure (altimeter): 30.01 inches Hg (1016.3 mb)
[Sea-level pressure: 1016.0 mb]
Winds: from the S (190 degrees) at 6 MPH (5 knots; 2.6 m/s)
Visibility: 10 or more miles (16+ km)
Ceiling: at least 12,000 feet AGL
Clouds: few clouds at 5500 feet AGL
Weather: no significant weather observed at this time

METAR text: KDAB 180753Z 17004KT 10SM CLR 19/19 A3001 RMK AO2 SLP160 T01890189
Conditions at: KDAB (DAYTONA BEACH , FL, US) observed 0753 UTC 18 February 2019
Temperature: 18.9°C (66°F)
Dewpoint: 18.9°C (66°F) [RH = 100%]
Pressure (altimeter): 30.01 inches Hg (1016.3 mb)
[Sea-level pressure: 1016.0 mb]
Winds: from the S (170 degrees) at 5 MPH (4 knots; 2.1 m/s)
Visibility: 10 or more miles (16+ km)
Ceiling: at least 12,000 feet AGL
Clouds: sky clear below 12,000 feet AGL
Weather: no significant weather observed at this time

METAR text: KDAB 180653Z 18004KT 10SM CLR 19/19 A3001 RMK AO2 SLP160 T01890189
Conditions at: KDAB (DAYTONA BEACH , FL, US) observed 0653 UTC 18 February 2019
Temperature: 18.9°C (66°F)
Dewpoint: 18.9°C (66°F) [RH = 100%]
Pressure (altimeter): 30.01 inches Hg (1016.3 mb)
[Sea-level pressure: 1016.0 mb]
Winds: from the S (180 degrees) at 5 MPH (4 knots; 2.1 m/s)
Visibility: 10 or more miles (16+ km)
Ceiling: at least 12,000 feet AGL
Clouds: sky clear below 12,000 feet AGL
Weather: no significant weather observed at this time

METAR text: KDAB 180553Z 16003KT 10SM FEW060 19/19 A3001 RMK AO2 SLP161 T01940194 10228 20194 51002
Conditions at: KDAB (DAYTONA BEACH , FL, US) observed 0553 UTC 18 February 2019
Temperature: 19.4°C (67°F)
Dewpoint: 19.4°C (67°F) [RH = 100%]
Pressure (altimeter): 30.01 inches Hg (1016.3 mb)
[Sea-level pressure: 1016.1 mb]
Winds: from the SSE (160 degrees) at 3 MPH (3 knots; 1.5 m/s)
Visibility: 10 or more miles (16+ km)
Ceiling: at least 12,000 feet AGL
Clouds: few clouds at 6000 feet AGL
Weather: no significant weather observed at this time

METAR text: KDAB 180453Z 19003KT 10SM SCT049 20/19 A3001 RMK AO2 SLP161 T02000194 402890161
Conditions at: KDAB (DAYTONA BEACH , FL, US) observed 0453 UTC 18 February 2019
Temperature: 20.0°C (68°F)
Dewpoint: 19.4°C (67°F) [RH = 96%]
Pressure (altimeter): 30.01 inches Hg (1016.3 mb)
[Sea-level pressure: 1016.1 mb]
Winds: from the S (190 degrees) at 3 MPH (3 knots; 1.5 m/s)
Visibility: 10 or more miles (16+ km)
Ceiling: at least 12,000 feet AGL
Clouds: scattered clouds at 4900 feet AGL
Weather: no significant weather observed at this time

METAR text: KDAB 180353Z 20003KT 10SM SCT049 21/20 A3001 RMK AO2 SLP161 T02110200
Conditions at: KDAB (DAYTONA BEACH , FL, US) observed 0353 UTC 18 February 2019
Temperature: 21.1°C (70°F)
Dewpoint: 20.0°C (68°F) [RH = 93%]
Pressure (altimeter): 30.01 inches Hg (1016.3 mb)
[Sea-level pressure: 1016.1 mb]
Winds: from the SSW (200 degrees) at 3 MPH (3 knots; 1.5 m/s)
Visibility: 10 or more miles (16+ km)
Ceiling: at least 12,000 feet AGL
Clouds: scattered clouds at 4900 feet AGL
Weather: no significant weather observed at this time

METAR text: KDAB 180253Z 20005KT 10SM FEW049 22/20 A3000 RMK AO2 SLP159 T02170200 51013
Conditions at: KDAB (DAYTONA BEACH , FL, US) observed 0253 UTC 18 February 2019
Temperature: 21.7°C (71°F)
Dewpoint: 20.0°C (68°F) [RH = 90%]
Pressure (altimeter): 30.00 inches Hg (1016.0 mb)
[Sea-level pressure: 1015.9 mb]
Winds: from the SSW (200 degrees) at 6 MPH (5 knots; 2.6 m/s)
Visibility: 10 or more miles (16+ km)
Ceiling: at least 12,000 feet AGL
Clouds: few clouds at 4900 feet AGL
Weather: no significant weather observed at this time

METAR text: KDAB 180153Z 17004KT 10SM CLR 22/20 A2999 RMK AO2 SLP155 T02220200
Conditions at: KDAB (DAYTONA BEACH , FL, US) observed 0153 UTC 18 February 2019
Temperature: 22.2°C (72°F)
Dewpoint: 20.0°C (68°F) [RH = 87%]
Pressure (altimeter): 29.99 inches Hg (1015.7 mb)
[Sea-level pressure: 1015.5 mb]
Winds: from the S (170 degrees) at 5 MPH (4 knots; 2.1 m/s)
Visibility: 10 or more miles (16+ km)
Ceiling: at least 12,000 feet AGL
Clouds: sky clear below 12,000 feet AGL
Weather: no significant weather observed at this time

METAR text: KDAB 180053Z 16005KT 10SM FEW250 23/20 A2998 RMK AO2 SLP151 T02280200
Conditions at: KDAB (DAYTONA BEACH , FL, US) observed 0053 UTC 18 February 2019
Temperature: 22.8°C (73°F)
Dewpoint: 20.0°C (68°F) [RH = 84%]
Pressure (altimeter): 29.98 inches Hg (1015.3 mb)
[Sea-level pressure: 1015.1 mb]
Winds: from the SSE (160 degrees) at 6 MPH (5 knots; 2.6 m/s)
Visibility: 10 or more miles (16+ km)
Ceiling: at least 12,000 feet AGL
Clouds: few clouds at 25000 feet AGL
Weather: no significant weather observed at this time

METAR text: KDAB 172353Z 00000KT 9SM FEW065 FEW250 22/19 A2996 RMK AO2 SLP146 T02220194 10289 20222 53007
Conditions at: KDAB (DAYTONA BEACH , FL, US) observed 2353 UTC 17 February 2019
Temperature: 22.2°C (72°F)
Dewpoint: 19.4°C (67°F) [RH = 84%]
Pressure (altimeter): 29.96 inches Hg (1014.6 mb)
[Sea-level pressure: 1014.6 mb]
Winds: calm
Visibility: 9 miles (14 km)
Ceiling: at least 12,000 feet AGL
Clouds: few clouds at 6500 feet AGL
few clouds at 25000 feet AGL
Weather: no significant weather observed at this time

Forecast for: KDAB (DAYTONA BEACH , FL, US)
Text: KDAB 190548Z 1906/2006 02011KT P6SM VCSH OVC015
Forecast period: 0600 to 1400 UTC 19 February 2019
Forecast type: FROM: standard forecast or significant change
Winds: from the NNE (20 degrees) at 13 MPH (11 knots; 5.7 m/s)
Visibility: 6 or more miles 10+ km)
Ceiling: 1500 feet AGL
Clouds: overcast cloud deck at 1500 feet AGL
Weather: VCSH  (showers in vicinity)
Text: TEMPO 1911/1914 OVC010
Forecast period: 1100 to 1400 UTC 19 February 2019
Forecast type: TEMPORARY: The following changes expected for less than half the time period
Visibility: missing
Ceiling: 1000 feet AGL
Clouds: overcast cloud deck at 1000 feet AGL
Weather: no significant weather forecast for this period
Text: FM191400 05011KT P6SM VCSH BKN010 OVC025
Forecast period: 1400 to 1800 UTC 19 February 2019
Forecast type: FROM: standard forecast or significant change
Winds: from the NE (50 degrees) at 13 MPH (11 knots; 5.7 m/s)
Visibility: 6 or more miles 10+ km)
Ceiling: 1000 feet AGL
Clouds: broken clouds at 1000 feet AGL
overcast cloud deck at 2500 feet AGL
Weather: VCSH  (showers in vicinity)
Text: FM191800 07010KT P6SM VCSH SCT025 BKN040
Forecast period: 1800 UTC 19 February 2019 to 0600 UTC 20 February 2019
Forecast type: FROM: standard forecast or significant change
Winds: from the ENE (70 degrees) at 12 MPH (10 knots; 5.1 m/s)
Visibility: 6 or more miles 10+ km)
Ceiling: 4000 feet AGL
Clouds: scattered clouds at 2500 feet AGL
broken clouds at 4000 feet AGL
Weather: VCSH  (showers in vicinity)